sensor_id;sensor_type;location;lat;lon;timestamp;P1;durP1;ratioP1;P2;durP2;ratioP2
23270;SDS011;11804;51.118;17.058;2023-07-29T00:01:16;2.37;;;1.47;;
23270;SDS011;11804;51.118;17.058;2023-07-29T00:03:46;1.57;;;1.40;;
23270;SDS011;11804;51.118;17.058;2023-07-29T00:06:13;2.52;;;1.15;;
23270;SDS011;11804;51.118;17.058;2023-07-29T00:08:41;2.92;;;1.67;;
23270;SDS011;11804;51.118;17.058;2023-07-29T00:11:09;1.75;;;1.40;;
23270;SDS011;11804;51.118;17.058;2023-07-29T00:13:36;2.80;;;1.70;;
23270;SDS011;11804;51.118;17.058;2023-07-29T00:16:04;2.75;;;1.60;;
23270;SDS011;11804;51.118;17.058;2023-07-29T00:18:32;2.08;;;1.55;;
23270;SDS011;11804;51.118;17.058;2023-07-29T00:20:59;2.50;;;1.70;;
23270;SDS011;11804;51.118;17.058;2023-07-29T00:23:27;1.95;;;1.60;;
23270;SDS011;11804;51.118;17.058;2023-07-29T00:25:56;6.03;;;1.85;;
23270;SDS011;11804;51.118;17.058;2023-07-29T00:28:23;1.92;;;1.50;;
23270;SDS011;11804;51.118;17.058;2023-07-29T00:30:51;2.95;;;1.85;;
23270;SDS011;11804;51.118;17.058;2023-07-29T00:33:18;3.30;;;1.80;;
23270;SDS011;11804;51.118;17.058;2023-07-29T00:35:46;3.00;;;1.72;;
23270;SDS011;11804;51.118;17.058;2023-07-29T00:38:14;2.98;;;2.15;;
23270;SDS011;11804;51.118;17.058;2023-07-29T00:40:42;1.92;;;1.50;;
23270;SDS011;11804;51.118;17.058;2023-07-29T00:43:10;2.08;;;1.50;;
23270;SDS011;11804;51.118;17.058;2023-07-29T00:45:38;2.85;;;1.57;;
23270;SDS011;11804;51.118;17.058;2023-07-29T00:48:08;1.87;;;1.32;;
23270;SDS011;11804;51.118;17.058;2023-07-29T00:50:35;2.55;;;1.82;;
23270;SDS011;11804;51.118;17.058;2023-07-29T00:53:03;2.47;;;1.90;;
23270;SDS011;11804;51.118;17.058;2023-07-29T00:55:32;2.55;;;1.80;;
23270;SDS011;11804;51.118;17.058;2023-07-29T00:57:59;2.85;;;1.90;;
23270;SDS011;11804;51.118;17.058;2023-07-29T01:00:27;2.87;;;1.95;;
23270;SDS011;11804;51.118;17.058;2023-07-29T01:02:55;2.22;;;1.77;;
23270;SDS011;11804;51.118;17.058;2023-07-29T01:05:25;2.42;;;1.90;;
23270;SDS011;11804;51.118;17.058;2023-07-29T01:07:57;2.62;;;1.67;;
23270;SDS011;11804;51.118;17.058;2023-07-29T01:10:36;2.83;;;1.92;;
23270;SDS011;11804;51.118;17.058;2023-07-29T01:13:22;4.42;;;1.85;;
23270;SDS011;11804;51.118;17.058;2023-07-29T01:15:50;3.30;;;2.00;;
23270;SDS011;11804;51.118;17.058;2023-07-29T01:18:26;2.30;;;1.87;;
23270;SDS011;11804;51.118;17.058;2023-07-29T01:20:59;2.60;;;1.75;;
23270;SDS011;11804;51.118;17.058;2023-07-29T01:23:30;2.33;;;1.75;;
23270;SDS011;11804;51.118;17.058;2023-07-29T01:25:58;2.17;;;1.87;;
23270;SDS011;11804;51.118;17.058;2023-07-29T01:28:26;2.15;;;1.75;;
23270;SDS011;11804;51.118;17.058;2023-07-29T01:30:59;3.72;;;2.25;;
23270;SDS011;11804;51.118;17.058;2023-07-29T01:33:30;2.72;;;1.98;;
23270;SDS011;11804;51.118;17.058;2023-07-29T01:36:01;3.15;;;1.98;;
23270;SDS011;11804;51.118;17.058;2023-07-29T01:38:29;4.35;;;2.25;;
23270;SDS011;11804;51.118;17.058;2023-07-29T01:41:02;3.10;;;2.02;;
23270;SDS011;11804;51.118;17.058;2023-07-29T01:43:31;2.60;;;2.20;;
23270;SDS011;11804;51.118;17.058;2023-07-29T01:46:00;2.60;;;1.92;;
23270;SDS011;11804;51.118;17.058;2023-07-29T01:48:27;3.12;;;2.02;;
23270;SDS011;11804;51.118;17.058;2023-07-29T01:50:57;2.70;;;1.90;;
23270;SDS011;11804;51.118;17.058;2023-07-29T01:53:24;3.17;;;1.90;;
23270;SDS011;11804;51.118;17.058;2023-07-29T01:55:52;2.87;;;2.08;;
23270;SDS011;11804;51.118;17.058;2023-07-29T01:58:19;3.33;;;2.12;;
23270;SDS011;11804;51.118;17.058;2023-07-29T02:00:47;2.45;;;2.12;;
23270;SDS011;11804;51.118;17.058;2023-07-29T02:03:14;3.08;;;2.37;;
23270;SDS011;11804;51.118;17.058;2023-07-29T02:05:42;4.75;;;2.58;;
23270;SDS011;11804;51.118;17.058;2023-07-29T02:08:10;3.42;;;2.27;;
23270;SDS011;11804;51.118;17.058;2023-07-29T02:10:38;3.70;;;2.35;;
23270;SDS011;11804;51.118;17.058;2023-07-29T02:13:06;4.05;;;2.67;;
23270;SDS011;11804;51.118;17.058;2023-07-29T02:15:33;2.92;;;1.98;;
23270;SDS011;11804;51.118;17.058;2023-07-29T02:18:01;3.10;;;1.92;;
23270;SDS011;11804;51.118;17.058;2023-07-29T02:20:29;2.90;;;2.17;;
23270;SDS011;11804;51.118;17.058;2023-07-29T02:22:57;2.77;;;1.90;;
23270;SDS011;11804;51.118;17.058;2023-07-29T02:25:24;2.25;;;1.90;;
23270;SDS011;11804;51.118;17.058;2023-07-29T02:27:52;3.27;;;2.12;;
23270;SDS011;11804;51.118;17.058;2023-07-29T02:30:20;2.72;;;1.80;;
23270;SDS011;11804;51.118;17.058;2023-07-29T02:32:48;3.42;;;2.12;;
23270;SDS011;11804;51.118;17.058;2023-07-29T02:35:15;2.58;;;1.90;;
23270;SDS011;11804;51.118;17.058;2023-07-29T02:37:43;2.87;;;1.90;;
23270;SDS011;11804;51.118;17.058;2023-07-29T02:40:11;2.92;;;2.27;;
23270;SDS011;11804;51.118;17.058;2023-07-29T02:42:39;3.17;;;2.10;;
23270;SDS011;11804;51.118;17.058;2023-07-29T02:45:07;2.45;;;1.90;;
23270;SDS011;11804;51.118;17.058;2023-07-29T02:47:37;2.77;;;2.10;;
23270;SDS011;11804;51.118;17.058;2023-07-29T02:50:05;3.30;;;2.17;;
23270;SDS011;11804;51.118;17.058;2023-07-29T02:52:33;2.85;;;1.92;;
23270;SDS011;11804;51.118;17.058;2023-07-29T02:55:01;3.12;;;2.02;;
23270;SDS011;11804;51.118;17.058;2023-07-29T02:57:28;2.52;;;2.08;;
23270;SDS011;11804;51.118;17.058;2023-07-29T02:59:56;2.40;;;1.85;;
23270;SDS011;11804;51.118;17.058;2023-07-29T03:02:23;2.20;;;1.80;;
23270;SDS011;11804;51.118;17.058;2023-07-29T03:04:51;3.35;;;2.15;;
23270;SDS011;11804;51.118;17.058;2023-07-29T03:07:19;2.17;;;1.75;;
23270;SDS011;11804;51.118;17.058;2023-07-29T03:09:46;3.00;;;2.37;;
23270;SDS011;11804;51.118;17.058;2023-07-29T03:12:14;2.52;;;2.08;;
23270;SDS011;11804;51.118;17.058;2023-07-29T03:14:41;2.47;;;2.12;;
23270;SDS011;11804;51.118;17.058;2023-07-29T03:17:09;2.35;;;1.85;;
23270;SDS011;11804;51.118;17.058;2023-07-29T03:19:37;3.80;;;2.12;;
23270;SDS011;11804;51.118;17.058;2023-07-29T03:22:04;2.55;;;2.35;;
23270;SDS011;11804;51.118;17.058;2023-07-29T03:24:32;2.55;;;2.20;;
23270;SDS011;11804;51.118;17.058;2023-07-29T03:27:00;3.37;;;2.33;;
23270;SDS011;11804;51.118;17.058;2023-07-29T03:29:27;4.42;;;2.65;;
23270;SDS011;11804;51.118;17.058;2023-07-29T03:31:55;2.85;;;2.35;;
23270;SDS011;11804;51.118;17.058;2023-07-29T03:34:23;3.77;;;2.50;;
23270;SDS011;11804;51.118;17.058;2023-07-29T03:36:52;3.87;;;2.70;;
23270;SDS011;11804;51.118;17.058;2023-07-29T03:39:19;3.55;;;2.47;;
23270;SDS011;11804;51.118;17.058;2023-07-29T03:41:47;3.45;;;2.40;;
23270;SDS011;11804;51.118;17.058;2023-07-29T03:44:15;2.77;;;2.42;;
23270;SDS011;11804;51.118;17.058;2023-07-29T03:46:44;4.80;;;2.60;;
23270;SDS011;11804;51.118;17.058;2023-07-29T03:49:12;5.00;;;2.27;;
23270;SDS011;11804;51.118;17.058;2023-07-29T03:51:39;2.40;;;2.20;;
23270;SDS011;11804;51.118;17.058;2023-07-29T03:54:07;2.90;;;2.42;;
23270;SDS011;11804;51.118;17.058;2023-07-29T03:56:34;5.25;;;2.42;;
23270;SDS011;11804;51.118;17.058;2023-07-29T03:59:02;2.52;;;1.98;;
23270;SDS011;11804;51.118;17.058;2023-07-29T04:01:31;3.52;;;2.20;;
23270;SDS011;11804;51.118;17.058;2023-07-29T04:03:59;3.62;;;2.30;;
23270;SDS011;11804;51.118;17.058;2023-07-29T04:06:26;2.72;;;1.62;;
23270;SDS011;11804;51.118;17.058;2023-07-29T04:08:54;3.65;;;2.45;;
23270;SDS011;11804;51.118;17.058;2023-07-29T04:11:22;2.45;;;2.15;;
23270;SDS011;11804;51.118;17.058;2023-07-29T04:13:50;3.17;;;1.90;;
23270;SDS011;11804;51.118;17.058;2023-07-29T04:16:18;4.28;;;2.20;;
23270;SDS011;11804;51.118;17.058;2023-07-29T04:18:46;2.30;;;1.70;;
23270;SDS011;11804;51.118;17.058;2023-07-29T04:21:14;2.80;;;1.70;;
23270;SDS011;11804;51.118;17.058;2023-07-29T04:23:42;2.58;;;1.57;;
23270;SDS011;11804;51.118;17.058;2023-07-29T04:26:09;2.75;;;1.90;;
23270;SDS011;11804;51.118;17.058;2023-07-29T04:28:37;2.33;;;1.52;;
23270;SDS011;11804;51.118;17.058;2023-07-29T04:31:04;2.05;;;1.30;;
23270;SDS011;11804;51.118;17.058;2023-07-29T04:33:32;2.02;;;1.52;;
23270;SDS011;11804;51.118;17.058;2023-07-29T04:35:59;1.47;;;1.27;;
23270;SDS011;11804;51.118;17.058;2023-07-29T04:38:29;1.77;;;1.32;;
23270;SDS011;11804;51.118;17.058;2023-07-29T04:40:59;1.77;;;1.37;;
23270;SDS011;11804;51.118;17.058;2023-07-29T04:43:30;2.70;;;1.70;;
23270;SDS011;11804;51.118;17.058;2023-07-29T04:45:58;2.60;;;1.55;;
23270;SDS011;11804;51.118;17.058;2023-07-29T04:48:26;1.62;;;1.42;;
23270;SDS011;11804;51.118;17.058;2023-07-29T04:50:53;2.15;;;1.57;;
23270;SDS011;11804;51.118;17.058;2023-07-29T04:53:21;1.90;;;1.70;;
23270;SDS011;11804;51.118;17.058;2023-07-29T04:55:48;2.45;;;1.47;;
23270;SDS011;11804;51.118;17.058;2023-07-29T04:58:16;2.80;;;1.80;;
23270;SDS011;11804;51.118;17.058;2023-07-29T05:00:46;2.25;;;1.30;;
23270;SDS011;11804;51.118;17.058;2023-07-29T05:03:13;1.50;;;1.32;;
23270;SDS011;11804;51.118;17.058;2023-07-29T05:05:41;2.12;;;1.10;;
23270;SDS011;11804;51.118;17.058;2023-07-29T05:08:09;1.95;;;1.47;;
23270;SDS011;11804;51.118;17.058;2023-07-29T05:10:36;1.65;;;1.15;;
23270;SDS011;11804;51.118;17.058;2023-07-29T05:13:04;1.52;;;1.20;;
23270;SDS011;11804;51.118;17.058;2023-07-29T05:15:32;2.35;;;1.37;;
23270;SDS011;11804;51.118;17.058;2023-07-29T05:17:59;1.22;;;1.07;;
23270;SDS011;11804;51.118;17.058;2023-07-29T05:20:27;2.10;;;1.40;;
23270;SDS011;11804;51.118;17.058;2023-07-29T05:22:54;1.40;;;1.10;;
23270;SDS011;11804;51.118;17.058;2023-07-29T05:25:22;0.98;;;0.80;;
23270;SDS011;11804;51.118;17.058;2023-07-29T05:27:49;1.15;;;1.00;;
23270;SDS011;11804;51.118;17.058;2023-07-29T05:30:17;1.60;;;1.15;;
23270;SDS011;11804;51.118;17.058;2023-07-29T05:32:44;1.02;;;0.93;;
23270;SDS011;11804;51.118;17.058;2023-07-29T05:35:12;2.30;;;1.10;;
23270;SDS011;11804;51.118;17.058;2023-07-29T05:37:40;1.47;;;1.00;;
23270;SDS011;11804;51.118;17.058;2023-07-29T05:40:08;1.00;;;0.90;;
23270;SDS011;11804;51.118;17.058;2023-07-29T05:42:36;1.60;;;0.98;;
23270;SDS011;11804;51.118;17.058;2023-07-29T05:45:04;0.90;;;0.80;;
23270;SDS011;11804;51.118;17.058;2023-07-29T05:47:32;1.72;;;0.93;;
23270;SDS011;11804;51.118;17.058;2023-07-29T05:50:00;1.60;;;1.00;;
23270;SDS011;11804;51.118;17.058;2023-07-29T05:52:29;1.20;;;1.07;;
23270;SDS011;11804;51.118;17.058;2023-07-29T05:54:57;0.90;;;0.70;;
23270;SDS011;11804;51.118;17.058;2023-07-29T05:57:25;2.47;;;0.90;;
23270;SDS011;11804;51.118;17.058;2023-07-29T05:59:52;1.98;;;1.10;;
23270;SDS011;11804;51.118;17.058;2023-07-29T06:02:22;1.62;;;1.12;;
23270;SDS011;11804;51.118;17.058;2023-07-29T06:04:49;4.58;;;0.70;;
23270;SDS011;11804;51.118;17.058;2023-07-29T06:07:17;1.72;;;0.93;;
23270;SDS011;11804;51.118;17.058;2023-07-29T06:09:44;1.30;;;1.00;;
23270;SDS011;11804;51.118;17.058;2023-07-29T06:12:12;2.92;;;1.15;;
23270;SDS011;11804;51.118;17.058;2023-07-29T06:14:40;1.67;;;0.90;;
23270;SDS011;11804;51.118;17.058;2023-07-29T06:17:07;1.27;;;0.90;;
23270;SDS011;11804;51.118;17.058;2023-07-29T06:19:37;1.22;;;0.78;;
23270;SDS011;11804;51.118;17.058;2023-07-29T06:22:05;1.00;;;0.90;;
23270;SDS011;11804;51.118;17.058;2023-07-29T06:24:32;1.47;;;1.05;;
23270;SDS011;11804;51.118;17.058;2023-07-29T06:27:00;0.90;;;0.70;;
23270;SDS011;11804;51.118;17.058;2023-07-29T06:29:27;1.27;;;0.90;;
23270;SDS011;11804;51.118;17.058;2023-07-29T06:31:55;2.50;;;0.80;;
23270;SDS011;11804;51.118;17.058;2023-07-29T06:34:22;1.30;;;0.90;;
23270;SDS011;11804;51.118;17.058;2023-07-29T06:36:50;1.62;;;0.70;;
23270;SDS011;11804;51.118;17.058;2023-07-29T06:39:18;2.47;;;1.00;;
23270;SDS011;11804;51.118;17.058;2023-07-29T06:41:45;0.68;;;0.68;;
23270;SDS011;11804;51.118;17.058;2023-07-29T06:44:13;0.98;;;0.80;;
23270;SDS011;11804;51.118;17.058;2023-07-29T06:46:41;8.08;;;1.42;;
23270;SDS011;11804;51.118;17.058;2023-07-29T06:49:08;1.30;;;1.05;;
23270;SDS011;11804;51.118;17.058;2023-07-29T06:51:36;1.07;;;0.82;;
23270;SDS011;11804;51.118;17.058;2023-07-29T06:54:03;1.35;;;1.00;;
23270;SDS011;11804;51.118;17.058;2023-07-29T06:56:33;0.75;;;0.72;;
23270;SDS011;11804;51.118;17.058;2023-07-29T06:59:00;0.93;;;0.82;;
23270;SDS011;11804;51.118;17.058;2023-07-29T07:01:28;0.95;;;0.85;;
23270;SDS011;11804;51.118;17.058;2023-07-29T07:03:55;2.02;;;1.22;;
23270;SDS011;11804;51.118;17.058;2023-07-29T07:06:26;1.45;;;1.15;;
23270;SDS011;11804;51.118;17.058;2023-07-29T07:08:53;1.45;;;0.90;;
23270;SDS011;11804;51.118;17.058;2023-07-29T07:11:21;2.15;;;1.10;;
23270;SDS011;11804;51.118;17.058;2023-07-29T07:13:48;0.98;;;0.88;;
23270;SDS011;11804;51.118;17.058;2023-07-29T07:16:16;0.70;;;0.70;;
23270;SDS011;11804;51.118;17.058;2023-07-29T07:18:44;1.10;;;1.00;;
23270;SDS011;11804;51.118;17.058;2023-07-29T07:21:11;1.30;;;0.85;;
23270;SDS011;11804;51.118;17.058;2023-07-29T07:23:39;1.17;;;0.72;;
23270;SDS011;11804;51.118;17.058;2023-07-29T07:26:06;1.15;;;1.00;;
23270;SDS011;11804;51.118;17.058;2023-07-29T07:28:34;0.70;;;0.70;;
23270;SDS011;11804;51.118;17.058;2023-07-29T07:31:03;1.07;;;0.98;;
23270;SDS011;11804;51.118;17.058;2023-07-29T07:33:32;1.95;;;1.00;;
23270;SDS011;11804;51.118;17.058;2023-07-29T07:36:00;1.02;;;0.80;;
23270;SDS011;11804;51.118;17.058;2023-07-29T07:38:27;1.05;;;0.90;;
23270;SDS011;11804;51.118;17.058;2023-07-29T07:40:55;1.05;;;0.90;;
23270;SDS011;11804;51.118;17.058;2023-07-29T07:43:23;1.47;;;0.85;;
23270;SDS011;11804;51.118;17.058;2023-07-29T07:45:56;1.10;;;0.75;;
23270;SDS011;11804;51.118;17.058;2023-07-29T07:48:21;2.35;;;1.10;;
23270;SDS011;11804;51.118;17.058;2023-07-29T07:50:49;0.98;;;0.88;;
23270;SDS011;11804;51.118;17.058;2023-07-29T07:53:17;1.20;;;1.07;;
23270;SDS011;11804;51.118;17.058;2023-07-29T07:55:46;3.35;;;1.07;;
23270;SDS011;11804;51.118;17.058;2023-07-29T07:58:15;0.70;;;0.60;;
23270;SDS011;11804;51.118;17.058;2023-07-29T08:00:42;2.65;;;1.45;;
23270;SDS011;11804;51.118;17.058;2023-07-29T08:03:10;1.90;;;0.90;;
23270;SDS011;11804;51.118;17.058;2023-07-29T08:05:37;2.52;;;0.90;;
23270;SDS011;11804;51.118;17.058;2023-07-29T08:08:05;0.78;;;0.78;;
23270;SDS011;11804;51.118;17.058;2023-07-29T08:10:32;4.15;;;1.00;;
23270;SDS011;11804;51.118;17.058;2023-07-29T08:13:00;1.82;;;0.60;;
23270;SDS011;11804;51.118;17.058;2023-07-29T08:15:28;0.93;;;0.82;;
23270;SDS011;11804;51.118;17.058;2023-07-29T08:17:56;1.10;;;0.68;;
23270;SDS011;11804;51.118;17.058;2023-07-29T08:20:23;1.10;;;0.80;;
23270;SDS011;11804;51.118;17.058;2023-07-29T08:22:51;1.82;;;1.07;;
23270;SDS011;11804;51.118;17.058;2023-07-29T08:25:18;0.85;;;0.68;;
23270;SDS011;11804;51.118;17.058;2023-07-29T08:27:46;0.90;;;0.90;;
23270;SDS011;11804;51.118;17.058;2023-07-29T08:30:14;1.92;;;1.05;;
23270;SDS011;11804;51.118;17.058;2023-07-29T08:32:42;1.12;;;1.00;;
23270;SDS011;11804;51.118;17.058;2023-07-29T08:35:12;1.50;;;1.32;;
23270;SDS011;11804;51.118;17.058;2023-07-29T08:37:39;1.12;;;0.98;;
23270;SDS011;11804;51.118;17.058;2023-07-29T08:40:07;1.35;;;0.90;;
23270;SDS011;11804;51.118;17.058;2023-07-29T08:42:36;2.30;;;0.65;;
23270;SDS011;11804;51.118;17.058;2023-07-29T08:45:07;2.00;;;0.80;;
23270;SDS011;11804;51.118;17.058;2023-07-29T08:47:37;0.70;;;0.70;;
23270;SDS011;11804;51.118;17.058;2023-07-29T08:50:05;1.12;;;1.02;;
23270;SDS011;11804;51.118;17.058;2023-07-29T08:52:34;1.45;;;0.95;;
23270;SDS011;11804;51.118;17.058;2023-07-29T08:55:03;0.90;;;0.80;;
23270;SDS011;11804;51.118;17.058;2023-07-29T08:57:31;2.00;;;0.82;;
23270;SDS011;11804;51.118;17.058;2023-07-29T08:59:59;2.15;;;1.45;;
23270;SDS011;11804;51.118;17.058;2023-07-29T09:02:28;1.17;;;0.90;;
23270;SDS011;11804;51.118;17.058;2023-07-29T09:04:56;0.80;;;0.80;;
23270;SDS011;11804;51.118;17.058;2023-07-29T09:07:24;2.70;;;0.95;;
23270;SDS011;11804;51.118;17.058;2023-07-29T09:09:52;2.15;;;0.90;;
23270;SDS011;11804;51.118;17.058;2023-07-29T09:12:20;1.50;;;0.80;;
23270;SDS011;11804;51.118;17.058;2023-07-29T09:14:51;3.60;;;0.90;;
23270;SDS011;11804;51.118;17.058;2023-07-29T09:17:23;0.75;;;0.75;;
23270;SDS011;11804;51.118;17.058;2023-07-29T09:19:51;0.53;;;0.53;;
23270;SDS011;11804;51.118;17.058;2023-07-29T09:22:19;1.20;;;0.85;;
23270;SDS011;11804;51.118;17.058;2023-07-29T09:24:47;1.52;;;1.17;;
23270;SDS011;11804;51.118;17.058;2023-07-29T09:27:25;0.90;;;0.60;;
23270;SDS011;11804;51.118;17.058;2023-07-29T09:29:53;0.55;;;0.55;;
23270;SDS011;11804;51.118;17.058;2023-07-29T09:32:23;1.25;;;0.98;;
23270;SDS011;11804;51.118;17.058;2023-07-29T09:34:51;1.05;;;0.90;;
23270;SDS011;11804;51.118;17.058;2023-07-29T09:37:21;1.15;;;1.00;;
23270;SDS011;11804;51.118;17.058;2023-07-29T09:39:50;0.95;;;0.85;;
23270;SDS011;11804;51.118;17.058;2023-07-29T09:42:23;0.50;;;0.50;;
23270;SDS011;11804;51.118;17.058;2023-07-29T09:44:49;0.60;;;0.42;;
23270;SDS011;11804;51.118;17.058;2023-07-29T09:47:22;1.32;;;0.80;;
23270;SDS011;11804;51.118;17.058;2023-07-29T09:49:47;2.25;;;0.57;;
23270;SDS011;11804;51.118;17.058;2023-07-29T09:52:17;2.27;;;0.80;;
23270;SDS011;11804;51.118;17.058;2023-07-29T09:54:46;0.93;;;0.80;;
23270;SDS011;11804;51.118;17.058;2023-07-29T09:57:14;0.70;;;0.70;;
23270;SDS011;11804;51.118;17.058;2023-07-29T09:59:52;0.82;;;0.57;;
23270;SDS011;11804;51.118;17.058;2023-07-29T10:02:23;1.22;;;1.12;;
23270;SDS011;11804;51.118;17.058;2023-07-29T10:04:52;2.05;;;0.98;;
23270;SDS011;11804;51.118;17.058;2023-07-29T10:07:21;1.32;;;0.95;;
23270;SDS011;11804;51.118;17.058;2023-07-29T10:09:51;2.15;;;0.80;;
23270;SDS011;11804;51.118;17.058;2023-07-29T10:12:19;6.10;;;1.62;;
23270;SDS011;11804;51.118;17.058;2023-07-29T10:14:48;1.32;;;1.05;;
23270;SDS011;11804;51.118;17.058;2023-07-29T10:17:17;1.32;;;1.00;;
23270;SDS011;11804;51.118;17.058;2023-07-29T10:19:52;2.77;;;1.20;;
23270;SDS011;11804;51.118;17.058;2023-07-29T10:22:19;1.62;;;0.98;;
23270;SDS011;11804;51.118;17.058;2023-07-29T10:24:48;1.32;;;1.10;;
23270;SDS011;11804;51.118;17.058;2023-07-29T10:27:18;1.35;;;0.90;;
23270;SDS011;11804;51.118;17.058;2023-07-29T10:29:50;1.10;;;1.00;;
23270;SDS011;11804;51.118;17.058;2023-07-29T10:32:23;0.85;;;0.85;;
23270;SDS011;11804;51.118;17.058;2023-07-29T10:34:53;1.22;;;0.90;;
23270;SDS011;11804;51.118;17.058;2023-07-29T10:37:22;2.33;;;1.00;;
23270;SDS011;11804;51.118;17.058;2023-07-29T10:39:58;1.40;;;1.02;;
23270;SDS011;11804;51.118;17.058;2023-07-29T10:42:22;1.82;;;1.22;;
23270;SDS011;11804;51.118;17.058;2023-07-29T10:44:50;1.22;;;1.12;;
23270;SDS011;11804;51.118;17.058;2023-07-29T10:47:20;1.20;;;1.10;;
23270;SDS011;11804;51.118;17.058;2023-07-29T10:49:53;1.40;;;1.10;;
23270;SDS011;11804;51.118;17.058;2023-07-29T10:55:04;1.85;;;1.50;;
23270;SDS011;11804;51.118;17.058;2023-07-29T10:57:39;1.75;;;1.50;;
23270;SDS011;11804;51.118;17.058;2023-07-29T11:00:08;2.08;;;1.80;;
23270;SDS011;11804;51.118;17.058;2023-07-29T11:02:37;1.40;;;1.30;;
23270;SDS011;11804;51.118;17.058;2023-07-29T11:05:06;3.98;;;1.80;;
23270;SDS011;11804;51.118;17.058;2023-07-29T11:07:43;1.50;;;1.40;;
23270;SDS011;11804;51.118;17.058;2023-07-29T11:10:12;1.80;;;1.60;;
23270;SDS011;11804;51.118;17.058;2023-07-29T11:15:21;2.25;;;1.60;;
23270;SDS011;11804;51.118;17.058;2023-07-29T11:17:56;1.60;;;1.50;;
23270;SDS011;11804;51.118;17.058;2023-07-29T11:20:26;2.65;;;2.00;;
23270;SDS011;11804;51.118;17.058;2023-07-29T11:22:58;2.98;;;1.60;;
23270;SDS011;11804;51.118;17.058;2023-07-29T11:25:28;2.17;;;1.90;;
23270;SDS011;11804;51.118;17.058;2023-07-29T11:27:57;1.67;;;1.32;;
23270;SDS011;11804;51.118;17.058;2023-07-29T11:30:26;2.10;;;1.90;;
23270;SDS011;11804;51.118;17.058;2023-07-29T11:32:55;2.15;;;1.67;;
23270;SDS011;11804;51.118;17.058;2023-07-29T11:35:23;3.27;;;2.27;;
23270;SDS011;11804;51.118;17.058;2023-07-29T11:37:51;1.90;;;1.60;;
23270;SDS011;11804;51.118;17.058;2023-07-29T11:40:22;1.77;;;1.42;;
23270;SDS011;11804;51.118;17.058;2023-07-29T11:42:51;2.30;;;1.55;;
23270;SDS011;11804;51.118;17.058;2023-07-29T11:45:20;2.20;;;1.40;;
23270;SDS011;11804;51.118;17.058;2023-07-29T11:47:49;1.70;;;1.40;;
23270;SDS011;11804;51.118;17.058;2023-07-29T11:50:17;2.08;;;1.40;;
23270;SDS011;11804;51.118;17.058;2023-07-29T11:52:45;2.15;;;1.45;;
23270;SDS011;11804;51.118;17.058;2023-07-29T11:55:16;1.87;;;1.32;;
23270;SDS011;11804;51.118;17.058;2023-07-29T11:57:45;1.60;;;1.40;;
23270;SDS011;11804;51.118;17.058;2023-07-29T12:00:16;1.82;;;1.60;;
23270;SDS011;11804;51.118;17.058;2023-07-29T12:02:44;3.58;;;1.35;;
23270;SDS011;11804;51.118;17.058;2023-07-29T12:05:13;1.90;;;1.57;;
23270;SDS011;11804;51.118;17.058;2023-07-29T12:07:42;1.40;;;1.30;;
23270;SDS011;11804;51.118;17.058;2023-07-29T12:10:11;0.85;;;0.85;;
23270;SDS011;11804;51.118;17.058;2023-07-29T12:12:49;1.20;;;1.10;;
23270;SDS011;11804;51.118;17.058;2023-07-29T12:15:29;0.90;;;0.78;;
23270;SDS011;11804;51.118;17.058;2023-07-29T12:17:54;1.10;;;1.00;;
23270;SDS011;11804;51.118;17.058;2023-07-29T12:20:23;1.47;;;1.15;;
23270;SDS011;11804;51.118;17.058;2023-07-29T12:22:53;1.32;;;1.12;;
23270;SDS011;11804;51.118;17.058;2023-07-29T12:25:22;1.20;;;0.90;;
23270;SDS011;11804;51.118;17.058;2023-07-29T12:27:50;1.30;;;1.00;;
23270;SDS011;11804;51.118;17.058;2023-07-29T12:30:21;1.22;;;0.90;;
23270;SDS011;11804;51.118;17.058;2023-07-29T12:32:50;1.60;;;0.75;;
23270;SDS011;11804;51.118;17.058;2023-07-29T12:35:18;1.90;;;0.90;;
23270;SDS011;11804;51.118;17.058;2023-07-29T12:37:46;1.32;;;1.05;;
23270;SDS011;11804;51.118;17.058;2023-07-29T12:40:22;1.35;;;0.90;;
23270;SDS011;11804;51.118;17.058;2023-07-29T12:42:51;1.62;;;0.93;;
23270;SDS011;11804;51.118;17.058;2023-07-29T12:45:20;1.25;;;0.80;;
23270;SDS011;11804;51.118;17.058;2023-07-29T12:47:49;3.12;;;0.80;;
23270;SDS011;11804;51.118;17.058;2023-07-29T12:50:17;1.40;;;1.12;;
23270;SDS011;11804;51.118;17.058;2023-07-29T12:52:45;0.72;;;0.50;;
23270;SDS011;11804;51.118;17.058;2023-07-29T12:55:13;1.00;;;0.72;;
23270;SDS011;11804;51.118;17.058;2023-07-29T12:57:41;5.03;;;0.80;;
23270;SDS011;11804;51.118;17.058;2023-07-29T13:00:10;0.80;;;0.70;;
23270;SDS011;11804;51.118;17.058;2023-07-29T13:02:38;1.12;;;0.80;;
23270;SDS011;11804;51.118;17.058;2023-07-29T13:05:06;1.55;;;0.90;;
23270;SDS011;11804;51.118;17.058;2023-07-29T13:07:36;0.60;;;0.60;;
23270;SDS011;11804;51.118;17.058;2023-07-29T13:10:04;1.17;;;0.60;;
23270;SDS011;11804;51.118;17.058;2023-07-29T13:12:33;0.60;;;0.60;;
23270;SDS011;11804;51.118;17.058;2023-07-29T13:15:00;0.70;;;0.57;;
23270;SDS011;11804;51.118;17.058;2023-07-29T13:17:28;0.82;;;0.57;;
23270;SDS011;11804;51.118;17.058;2023-07-29T13:19:56;0.50;;;0.50;;
23270;SDS011;11804;51.118;17.058;2023-07-29T13:22:23;0.62;;;0.47;;
23270;SDS011;11804;51.118;17.058;2023-07-29T13:24:51;1.00;;;0.78;;
23270;SDS011;11804;51.118;17.058;2023-07-29T13:27:19;0.95;;;0.90;;
23270;SDS011;11804;51.118;17.058;2023-07-29T13:29:46;1.00;;;0.60;;
23270;SDS011;11804;51.118;17.058;2023-07-29T13:32:14;0.88;;;0.65;;
23270;SDS011;11804;51.118;17.058;2023-07-29T13:34:41;0.70;;;0.55;;
23270;SDS011;11804;51.118;17.058;2023-07-29T13:37:09;0.60;;;0.60;;
23270;SDS011;11804;51.118;17.058;2023-07-29T13:39:37;0.78;;;0.60;;
23270;SDS011;11804;51.118;17.058;2023-07-29T13:42:05;0.53;;;0.50;;
23270;SDS011;11804;51.118;17.058;2023-07-29T13:44:33;0.80;;;0.60;;
23270;SDS011;11804;51.118;17.058;2023-07-29T13:47:00;0.90;;;0.60;;
23270;SDS011;11804;51.118;17.058;2023-07-29T13:49:28;1.07;;;0.65;;
23270;SDS011;11804;51.118;17.058;2023-07-29T13:51:56;1.22;;;0.53;;
23270;SDS011;11804;51.118;17.058;2023-07-29T13:54:23;1.12;;;0.80;;
23270;SDS011;11804;51.118;17.058;2023-07-29T13:56:51;0.78;;;0.60;;
23270;SDS011;11804;51.118;17.058;2023-07-29T13:59:19;0.50;;;0.50;;
23270;SDS011;11804;51.118;17.058;2023-07-29T14:01:47;0.70;;;0.50;;
23270;SDS011;11804;51.118;17.058;2023-07-29T14:04:15;0.60;;;0.60;;
23270;SDS011;11804;51.118;17.058;2023-07-29T14:06:42;1.20;;;0.57;;
23270;SDS011;11804;51.118;17.058;2023-07-29T14:09:11;1.30;;;0.72;;
23270;SDS011;11804;51.118;17.058;2023-07-29T14:11:38;1.35;;;0.60;;
23270;SDS011;11804;51.118;17.058;2023-07-29T14:14:07;0.70;;;0.60;;
23270;SDS011;11804;51.118;17.058;2023-07-29T14:16:35;0.60;;;0.57;;
23270;SDS011;11804;51.118;17.058;2023-07-29T14:19:03;0.53;;;0.53;;
23270;SDS011;11804;51.118;17.058;2023-07-29T14:21:30;0.53;;;0.50;;
23270;SDS011;11804;51.118;17.058;2023-07-29T14:23:58;0.62;;;0.50;;
23270;SDS011;11804;51.118;17.058;2023-07-29T14:26:27;1.80;;;0.60;;
23270;SDS011;11804;51.118;17.058;2023-07-29T14:28:54;0.68;;;0.50;;
23270;SDS011;11804;51.118;17.058;2023-07-29T14:31:22;0.60;;;0.50;;
23270;SDS011;11804;51.118;17.058;2023-07-29T14:33:49;0.80;;;0.50;;
23270;SDS011;11804;51.118;17.058;2023-07-29T14:36:17;1.02;;;0.68;;
23270;SDS011;11804;51.118;17.058;2023-07-29T14:38:45;1.00;;;0.90;;
23270;SDS011;11804;51.118;17.058;2023-07-29T14:41:12;1.10;;;0.70;;
23270;SDS011;11804;51.118;17.058;2023-07-29T14:43:40;1.90;;;0.50;;
23270;SDS011;11804;51.118;17.058;2023-07-29T14:46:07;1.45;;;0.70;;